createdAt,value
2019-03-24T00:03:51.291Z,6.73
2019-03-24T00:08:57.190Z,8.47
2019-03-24T00:14:03.095Z,7.13
2019-03-24T00:19:09.266Z,7.50
2019-03-24T00:24:15.136Z,7.37
2019-03-24T00:29:21.225Z,8.50
2019-03-24T00:34:27.264Z,6.57
2019-03-24T00:39:33.198Z,9.33
2019-03-24T00:44:39.358Z,9.27
2019-03-24T00:49:45.351Z,7.63
2019-03-24T00:54:51.213Z,6.73
2019-03-24T00:59:57.246Z,8.17
2019-03-24T01:05:03.089Z,7.40
2019-03-24T01:10:09.621Z,7.33
2019-03-24T01:15:15.739Z,8.77
2019-03-24T01:20:21.835Z,8.00
2019-03-24T01:25:27.791Z,7.63
2019-03-24T01:30:33.913Z,7.40
2019-03-24T01:35:39.822Z,9.07
2019-03-24T01:40:45.757Z,7.93
2019-03-24T01:45:58.659Z,9.13
2019-03-24T01:50:59.274Z,8.60
2019-03-24T01:56:05.364Z,7.57
2019-03-24T02:01:12.638Z,7.90
2019-03-24T02:06:18.745Z,7.23
2019-03-24T02:11:24.706Z,8.33
2019-03-24T02:16:30.779Z,9.23
2019-03-24T02:21:36.658Z,8.67
2019-03-24T02:26:42.717Z,8.90
2019-03-24T02:31:48.711Z,8.47
2019-03-24T02:36:54.786Z,9.57
2019-03-24T02:42:01.031Z,9.17
2019-03-24T02:47:07.018Z,8.57
2019-03-24T02:52:12.977Z,8.17
2019-03-24T02:57:19.013Z,9.33
2019-03-24T03:02:25.063Z,8.80
2019-03-24T03:07:31.054Z,9.03
2019-03-24T03:12:37.111Z,10.10
2019-03-24T03:17:43.161Z,9.23
2019-03-24T03:22:49.277Z,8.70
2019-03-24T03:27:55.193Z,8.57
2019-03-24T03:33:02.743Z,9.63
2019-03-24T03:38:08.924Z,8.67
2019-03-24T03:43:14.888Z,9.70
2019-03-24T03:48:20.782Z,8.57
2019-03-24T03:53:26.768Z,8.77
2019-03-24T03:58:32.861Z,8.63
2019-03-24T04:03:38.806Z,7.70
2019-03-24T04:08:44.923Z,10.00
2019-03-24T04:13:50.742Z,9.97
2019-03-24T04:18:56.695Z,8.20
2019-03-24T04:24:02.807Z,7.50
2019-03-24T04:29:08.940Z,8.37
2019-03-24T04:34:14.789Z,9.83
2019-03-24T04:39:20.840Z,8.40
2019-03-24T04:44:27.088Z,7.93
2019-03-24T04:49:33.187Z,9.03
2019-03-24T04:54:39.235Z,9.33
2019-03-24T04:59:45.306Z,8.83
2019-03-24T05:04:51.500Z,7.77
2019-03-24T05:09:58.214Z,8.23
2019-03-24T05:15:04.372Z,7.80
2019-03-24T05:20:10.771Z,8.10
2019-03-24T05:25:16.625Z,9.33
2019-03-24T05:30:22.716Z,9.10
2019-03-24T05:35:28.918Z,10.17
2019-03-24T05:40:35.017Z,9.00
2019-03-24T05:45:41.129Z,9.87
2019-03-24T05:50:47.017Z,9.27
2019-03-24T05:55:53.013Z,8.77
2019-03-24T06:00:58.992Z,9.70
2019-03-24T06:06:04.986Z,8.67
2019-03-24T06:11:10.804Z,8.37
2019-03-24T06:16:16.778Z,10.23
2019-03-24T06:21:22.747Z,8.17
2019-03-24T06:26:28.508Z,8.47
2019-03-24T06:31:34.511Z,10.03
2019-03-24T06:36:40.482Z,8.60
2019-03-24T06:41:46.587Z,8.93
2019-03-24T06:46:52.564Z,10.57
2019-03-24T06:51:58.529Z,8.87
2019-03-24T06:57:04.482Z,9.43
2019-03-24T07:02:10.639Z,8.87
2019-03-24T07:07:16.766Z,9.53
2019-03-24T07:12:22.873Z,10.60
2019-03-24T07:17:28.718Z,10.43
2019-03-24T07:22:34.760Z,10.00
2019-03-24T07:27:40.721Z,9.97
2019-03-24T07:32:46.828Z,11.17
2019-03-24T07:37:52.957Z,11.90
2019-03-24T07:42:59.005Z,11.63
2019-03-24T07:48:18.623Z,12.70
2019-03-24T07:53:27.162Z,12.43
2019-03-24T07:58:45.945Z,12.83
2019-03-24T08:03:50.557Z,13.73
2019-03-24T08:08:57.940Z,14.77
2019-03-24T08:14:03.924Z,14.43
2019-03-24T08:19:13.054Z,14.07
2019-03-24T08:24:18.955Z,15.23
2019-03-24T08:29:25.213Z,13.27
2019-03-24T08:34:31.395Z,15.37
2019-03-24T08:39:37.565Z,13.50
2019-03-24T08:44:45.433Z,14.80
2019-03-24T08:49:51.604Z,14.70
2019-03-24T08:54:59.701Z,13.97
2019-03-24T09:00:08.145Z,14.07
2019-03-24T09:05:14.537Z,12.53
2019-03-24T09:10:20.489Z,13.67
2019-03-24T09:15:32.508Z,10.40
2019-03-24T09:20:41.910Z,11.53
2019-03-24T09:25:46.519Z,12.40
2019-03-24T09:30:52.765Z,10.27
2019-03-24T09:35:58.885Z,10.63
2019-03-24T09:41:04.923Z,9.97
2019-03-24T09:46:11.089Z,8.87
2019-03-24T09:51:17.244Z,7.20
2019-03-24T09:56:23.562Z,8.57
2019-03-24T10:01:30.388Z,8.53
2019-03-24T10:06:36.557Z,9.80
2019-03-24T10:11:42.836Z,8.57
2019-03-24T10:16:48.940Z,8.70
2019-03-24T10:21:55.055Z,7.53
2019-03-24T10:27:01.045Z,6.83
2019-03-24T10:32:07.229Z,6.17
2019-03-24T10:37:13.333Z,6.90
2019-03-24T10:42:19.444Z,5.57
2019-03-24T10:47:25.559Z,6.80
2019-03-24T10:52:31.818Z,4.40
2019-03-24T10:57:38.103Z,5.27
2019-03-24T11:02:44.350Z,4.60
2019-03-24T11:07:50.378Z,5.10
2019-03-24T11:12:56.616Z,5.30
2019-03-24T11:18:02.765Z,6.07
2019-03-24T11:23:18.551Z,6.83
2019-03-24T11:28:24.620Z,5.43
2019-03-24T11:33:40.292Z,6.23
2019-03-24T11:38:46.808Z,6.47
2019-03-24T11:43:52.866Z,6.10
2019-03-24T11:48:58.833Z,5.97
2019-03-24T11:54:05.119Z,5.60
2019-03-24T11:59:11.327Z,5.53
2019-03-24T12:04:17.501Z,5.17
2019-03-24T12:09:23.500Z,5.53
2019-03-24T12:14:29.811Z,5.27
2019-03-24T12:19:36.848Z,5.10
2019-03-24T12:24:42.997Z,6.57
2019-03-24T12:29:49.117Z,5.43
2019-03-24T12:34:55.415Z,5.93
2019-03-24T12:40:01.674Z,4.95
2019-03-24T12:45:08.879Z,4.27
2019-03-24T12:50:15.096Z,6.35
2019-03-24T12:55:21.222Z,5.62
2019-03-24T13:00:41.087Z,6.30
2019-03-24T13:05:47.197Z,5.42
2019-03-24T13:10:53.439Z,5.50
2019-03-24T13:15:59.949Z,5.20
2019-03-24T13:21:05.877Z,4.65
2019-03-24T13:26:11.935Z,4.70
2019-03-24T13:31:18.217Z,6.25
2019-03-24T13:36:24.469Z,5.30
2019-03-24T13:41:30.471Z,4.87
2019-03-24T13:46:36.666Z,5.12
2019-03-24T13:51:42.998Z,3.97
2019-03-24T13:56:49.231Z,4.50
2019-03-24T14:01:55.679Z,3.77
2019-03-24T14:07:01.689Z,4.10
2019-03-24T14:12:07.863Z,4.07
2019-03-24T14:17:14.247Z,5.25
2019-03-24T14:22:20.324Z,5.10
2019-03-24T14:27:26.305Z,5.35
2019-03-24T14:32:32.507Z,4.67
2019-03-24T14:37:38.792Z,5.08
2019-03-24T14:42:44.621Z,4.12
2019-03-24T14:47:50.722Z,3.50
2019-03-24T14:52:56.904Z,3.98
2019-03-24T14:58:03.293Z,3.27
2019-03-24T15:03:09.968Z,3.72
2019-03-24T15:08:16.264Z,3.08
2019-03-24T15:13:22.666Z,3.92
2019-03-24T15:18:28.615Z,3.02
2019-03-24T15:23:34.503Z,3.92
2019-03-24T15:28:40.581Z,2.72
2019-03-24T15:33:46.590Z,3.30
2019-03-24T15:38:52.752Z,3.37
2019-03-24T15:44:01.908Z,2.95
2019-03-24T15:49:08.051Z,2.65
2019-03-24T15:54:14.086Z,4.20
2019-03-24T15:59:20.190Z,2.80
2019-03-24T16:04:26.282Z,4.08
2019-03-24T16:09:32.382Z,3.45
2019-03-24T16:14:38.606Z,3.27
2019-03-24T16:19:44.782Z,3.25
2019-03-24T16:24:50.673Z,2.55
2019-03-24T16:29:56.823Z,3.00
2019-03-24T16:35:03.084Z,3.42
2019-03-24T16:40:09.487Z,3.17
2019-03-24T16:45:16.024Z,3.25
2019-03-24T16:50:22.087Z,2.50
2019-03-24T16:55:28.238Z,2.30
2019-03-24T17:00:34.298Z,2.27
2019-03-24T17:05:40.544Z,2.80
2019-03-24T17:10:47.111Z,2.70
2019-03-24T17:15:53.444Z,2.42
2019-03-24T17:20:59.718Z,3.00
2019-03-24T17:26:05.728Z,3.30
2019-03-24T17:31:11.823Z,3.05
2019-03-24T17:36:17.964Z,2.52
2019-03-24T17:41:24.187Z,3.05
2019-03-24T17:46:39.671Z,3.10
2019-03-24T17:51:46.116Z,2.60
2019-03-24T17:56:52.238Z,2.58
2019-03-24T18:01:58.319Z,2.70
2019-03-24T18:07:04.311Z,2.67
2019-03-24T18:12:10.370Z,2.85
2019-03-24T18:17:16.353Z,3.10
2019-03-24T18:22:22.552Z,2.70
2019-03-24T18:27:28.797Z,4.00
2019-03-24T18:32:35.024Z,2.70
2019-03-24T18:37:41.074Z,3.40
2019-03-24T18:42:49.274Z,3.90
2019-03-24T18:47:55.395Z,3.92
2019-03-24T18:53:01.647Z,3.85
2019-03-24T18:58:07.993Z,3.30
2019-03-24T19:03:14.070Z,4.10
2019-03-24T19:08:20.070Z,4.67
2019-03-24T19:13:26.924Z,4.10
2019-03-24T19:18:33.253Z,3.72
2019-03-24T19:23:39.959Z,2.95
2019-03-24T19:28:46.189Z,2.83
2019-03-24T19:33:52.347Z,2.40
2019-03-24T19:38:58.881Z,2.92
2019-03-24T19:44:05.157Z,3.60
2019-03-24T19:49:11.404Z,3.55
2019-03-24T19:54:17.641Z,2.85
2019-03-24T19:59:23.887Z,3.15
2019-03-24T20:04:30.069Z,2.83
2019-03-24T20:09:36.221Z,3.35
2019-03-24T20:14:42.259Z,3.00
2019-03-24T20:19:48.274Z,3.83
2019-03-24T20:24:55.624Z,3.47
2019-03-24T20:30:01.752Z,2.75
2019-03-24T20:35:09.110Z,2.40
2019-03-24T20:40:15.650Z,4.50
2019-03-24T20:45:21.833Z,2.62
2019-03-24T20:50:27.970Z,1.80
2019-03-24T20:55:34.528Z,2.20
2019-03-24T21:00:40.978Z,2.50
2019-03-24T21:05:47.056Z,2.50
2019-03-24T21:10:53.164Z,2.00
2019-03-24T21:15:59.478Z,2.05
2019-03-24T21:21:06.164Z,2.00
2019-03-24T21:26:13.623Z,2.77
2019-03-24T21:31:19.852Z,2.10
2019-03-24T21:36:25.947Z,2.40
2019-03-24T21:41:32.665Z,3.03
2019-03-24T21:46:38.963Z,2.60
2019-03-24T21:51:44.995Z,2.30
2019-03-24T21:56:51.407Z,1.63
2019-03-24T22:01:57.716Z,1.50
2019-03-24T22:07:06.469Z,1.80
2019-03-24T22:12:12.867Z,1.50
2019-03-24T22:17:19.249Z,2.00
2019-03-24T22:22:25.781Z,1.60
2019-03-24T22:27:32.328Z,1.80
2019-03-24T22:32:38.761Z,1.70
2019-03-24T22:37:44.751Z,1.40
2019-03-24T22:42:51.024Z,1.57
2019-03-24T22:47:57.291Z,1.40
2019-03-24T22:53:03.397Z,1.70
2019-03-24T22:58:10.699Z,1.90
2019-03-24T23:03:16.762Z,1.90
2019-03-24T23:08:22.726Z,1.93
2019-03-24T23:13:28.816Z,2.40
2019-03-24T23:18:34.780Z,1.87
2019-03-24T23:23:41.242Z,1.80
2019-03-24T23:28:47.211Z,1.83
2019-03-24T23:33:53.418Z,2.03
2019-03-24T23:38:59.312Z,1.93
2019-03-24T23:44:05.521Z,2.33
2019-03-24T23:49:22.294Z,1.97
2019-03-24T23:54:28.481Z,3.57
2019-03-24T23:59:35.169Z,1.90
